createdAt,value
2023-04-12T10:19:50.360Z,19680.00
2023-04-12T10:20:50.328Z,20256.00
2023-04-12T10:21:50.318Z,19456.00
2023-04-12T10:22:50.282Z,18688.00
2023-04-12T10:23:50.274Z,18880.00
2023-04-12T10:24:50.269Z,18656.00
2023-04-12T10:44:28.694Z,20288.00
2023-04-12T10:45:28.607Z,22016.00
2023-04-12T10:46:28.662Z,20000.00
2023-04-12T10:47:28.707Z,17120.00
2023-04-12T10:48:28.884Z,15840.00
2023-04-12T10:49:28.522Z,16004.00
2023-04-12T10:50:28.532Z,16316.00
2023-04-12T10:51:28.631Z,16832.00
2023-04-12T10:52:28.510Z,17376.00
2023-04-12T10:53:28.489Z,17216.00
2023-04-12T10:54:28.452Z,15740.00
2023-04-12T10:55:28.424Z,14240.00
2023-04-12T10:56:30.133Z,15744.00
2023-04-12T10:57:28.437Z,15276.00
2023-04-12T10:58:28.455Z,12868.00
2023-04-12T10:59:37.585Z,10444.00
2023-04-12T11:01:37.677Z,11356.00
2023-04-12T11:02:34.943Z,12108.00
2023-04-12T11:03:34.852Z,12904.00
2023-04-12T11:04:34.861Z,14372.00
2023-04-12T11:05:34.752Z,13992.00
2023-04-12T11:06:34.633Z,13376.00
2023-04-12T11:07:34.613Z,13712.00
2023-04-12T11:08:34.617Z,16864.00
2023-04-12T11:09:34.599Z,18208.00
2023-04-12T11:10:34.583Z,17440.00
2023-04-12T11:11:34.565Z,16240.00
2023-04-12T11:12:34.602Z,15920.00
2023-04-12T11:13:34.607Z,15456.00
2023-04-12T11:14:34.601Z,16272.00
2023-04-12T11:15:34.528Z,18592.00
2023-04-12T11:16:34.582Z,17984.00
2023-04-12T11:52:43.419Z,26112.00
2023-04-12T11:53:43.370Z,30976.00
2023-04-12T11:54:43.338Z,31776.00
2023-04-12T11:55:43.380Z,33568.00
2023-04-12T11:56:43.299Z,29504.00
2023-04-12T11:57:43.288Z,25792.00
2023-04-12T11:58:43.283Z,22048.00
2023-04-12T12:04:21.106Z,19328.00
2023-04-12T12:05:21.072Z,23456.00
2023-04-12T12:06:21.015Z,25568.00
2023-04-12T12:07:21.491Z,28768.00
2023-04-12T12:08:20.873Z,31520.00
2023-04-12T12:09:20.834Z,28640.00
2023-04-12T12:10:36.667Z,25216.00
2023-04-12T12:11:20.783Z,22528.00
2023-04-12T12:12:20.789Z,21472.00
2023-04-12T12:13:20.763Z,21536.00
2023-04-12T12:14:20.744Z,20832.00
2023-04-12T12:15:20.744Z,21600.00
2023-04-12T12:16:20.756Z,23520.00
2023-04-12T12:17:20.909Z,25056.00
2023-04-12T12:18:20.684Z,25760.00
2023-04-12T12:19:20.675Z,26336.00
2023-04-12T12:20:20.684Z,28544.00
2023-04-12T12:21:20.683Z,29024.00
2023-04-12T12:22:20.633Z,25536.00
2023-04-12T12:23:20.617Z,22432.00
2023-04-12T12:24:20.635Z,21440.00
2023-04-12T12:25:20.600Z,20384.00
2023-04-12T12:26:20.602Z,22048.00
2023-04-12T12:27:20.622Z,19200.00
2023-04-12T12:37:41.576Z,21600.00
2023-04-12T12:40:23.013Z,21088.00
2023-04-12T12:41:22.998Z,22368.00
2023-04-12T12:42:22.978Z,22752.00
2023-04-12T12:43:22.930Z,20800.00
2023-04-12T12:44:22.936Z,22208.00
2023-04-12T12:45:22.914Z,25856.00
2023-04-12T12:46:22.917Z,28000.00
2023-04-12T12:47:22.959Z,29280.00
2023-04-12T12:48:22.905Z,28448.00
2023-04-12T12:49:22.841Z,32448.00
2023-04-12T12:50:24.717Z,27232.00
2023-04-12T12:51:22.807Z,25184.00
2023-04-12T12:52:22.780Z,22624.00
2023-04-12T12:53:24.381Z,23136.00
2023-04-12T12:54:38.758Z,23616.00
2023-04-12T12:55:22.754Z,24512.00
2023-04-12T12:56:22.731Z,27296.00
2023-04-12T12:57:22.720Z,28256.00
2023-04-12T12:58:22.690Z,26368.00
2023-04-12T12:59:24.707Z,26112.00
2023-04-12T13:00:22.637Z,24608.00
2023-04-12T13:01:22.652Z,22656.00
2023-04-12T13:02:22.736Z,23552.00
2023-04-12T13:03:22.972Z,22016.00
2023-04-12T13:04:22.600Z,25120.00
2023-04-12T13:05:22.722Z,31552.00
2023-04-12T13:06:22.545Z,34464.00
2023-04-12T13:07:22.538Z,30432.00
2023-04-12T13:08:22.508Z,26592.00
2023-04-12T13:09:22.482Z,21760.00
2023-04-12T13:10:22.482Z,23360.00
2023-04-12T13:11:22.473Z,35616.00
2023-04-12T13:42:09.285Z,19328.00
2023-04-12T13:43:09.278Z,16464.00
2023-04-12T13:44:09.232Z,17376.00
2023-04-12T13:45:09.239Z,26144.00
2023-04-12T13:46:09.308Z,51072.00
2023-04-12T13:47:09.203Z,52480.00
2023-04-12T13:48:09.225Z,38048.00
2023-04-12T13:49:09.170Z,44256.00
2023-04-12T13:50:09.131Z,75904.00
2023-04-12T13:51:09.143Z,84192.00
2023-04-12T13:52:09.087Z,87072.00
2023-04-12T13:53:09.095Z,86880.00
2023-04-12T13:54:09.052Z,80736.00
2023-04-12T13:55:09.062Z,74976.00
2023-04-12T13:56:09.053Z,66752.00
2023-04-12T13:57:09.029Z,68768.00
2023-04-12T13:58:09.065Z,67168.00
2023-04-12T13:59:08.999Z,73024.00
2023-04-12T14:00:08.984Z,69824.00
2023-04-12T14:01:08.986Z,84864.00
2023-04-12T14:02:08.961Z,84192.00
2023-04-12T14:03:08.985Z,84672.00
2023-04-12T14:04:08.991Z,83904.00
2023-04-12T14:05:08.972Z,84544.00
2023-04-12T14:06:08.865Z,83424.00
2023-04-12T14:07:08.898Z,61888.00
2023-04-12T14:08:08.855Z,85952.00
2023-04-12T14:09:08.831Z,87072.00
2023-04-12T14:10:08.826Z,77792.00
2023-04-12T14:11:08.812Z,24544.00
2023-04-12T14:12:08.804Z,18208.00
2023-04-12T14:13:08.819Z,15984.00
2023-04-12T14:14:08.772Z,22080.00
2023-04-12T14:15:08.777Z,31072.00
2023-04-12T14:16:08.746Z,15976.00
2023-04-12T14:21:40.717Z,17824.00
2023-04-12T14:22:40.721Z,17120.00
2023-04-12T14:23:40.688Z,17248.00
2023-04-12T14:24:40.660Z,81504.00
2023-04-12T14:25:40.639Z,24736.00
2023-04-12T14:26:40.631Z,68000.00
2023-04-12T14:27:40.628Z,72672.00
2023-04-12T14:28:40.604Z,25792.00
2023-04-12T14:29:40.609Z,78624.00
2023-04-12T14:30:40.595Z,63904.00
2023-04-12T14:31:40.665Z,80832.00
2023-04-12T14:32:40.600Z,74688.00
2023-04-12T14:33:40.523Z,73120.00
2023-04-12T14:34:49.905Z,36704.00
2023-04-12T14:35:40.521Z,59648.00
2023-04-12T14:36:40.520Z,56480.00
2023-04-12T14:37:40.511Z,30752.00
2023-04-12T14:38:40.467Z,24032.00
2023-04-12T14:39:40.469Z,43072.00
2023-04-12T14:40:40.444Z,19040.00
2023-04-12T14:41:40.430Z,16640.00
2023-04-12T14:42:40.433Z,22304.00
2023-04-12T14:43:40.417Z,74816.00
2023-04-12T14:44:40.402Z,17056.00
2023-04-12T15:09:30.608Z,15808.00
2023-04-12T15:10:30.597Z,45472.00
2023-04-12T15:11:30.569Z,50784.00
2023-04-12T15:12:30.577Z,44416.00
2023-04-12T15:16:29.513Z,17664.00
2023-04-12T15:19:43.240Z,19872.00
2023-04-12T15:20:43.225Z,20224.00
